Time;durP1;ratioP1;P1;durP2;ratioP2;P2;SDS_P1;SDS_P2;PMS_P1;PMS_P2;Temp;Humidity;BMP_temperature;BMP_pressure;BME280_temperature;BME280_humidity;BME280_pressure;Samples;Min_cycle;Max_cycle;Signal;HPM_P1;HPM_P2
2021/03/20 00:02:09;;;;;;;8.63;2.58;;;;;;;-3.83;91.79;101926.69;4994446;28;20050;-51
2021/03/20 00:04:36;;;;;;;6.15;2.70;;;;;;;-3.74;92.46;101927.66;4992332;28;20042;-52
2021/03/20 00:07:02;;;;;;;6.03;2.42;;;;;;;-3.93;91.77;101927.34;4994928;28;20069;-48
2021/03/20 00:09:30;;;;;;;8.25;2.38;;;;;;;-3.91;92.06;101929.28;4996524;28;20057;-47
2021/03/20 00:11:58;;;;;;;6.43;2.78;;;;;;;-3.86;91.97;101938.16;4996115;28;20098;-49
2021/03/20 00:14:26;;;;;;;11.23;2.50;;;;;;;-3.80;92.85;101932.88;4996012;28;20038;-49
2021/03/20 00:16:53;;;;;;;8.15;2.03;;;;;;;-3.72;91.96;101938.69;4996277;28;20064;-49
2021/03/20 00:19:21;;;;;;;6.43;2.53;;;;;;;-3.75;91.34;101943.38;4995343;28;20085;-47
2021/03/20 00:21:48;;;;;;;9.70;2.78;;;;;;;-3.67;91.79;101948.44;4996868;28;20061;-50
2021/03/20 00:24:15;;;;;;;9.55;2.90;;;;;;;-3.49;90.93;101949.41;4994564;28;20046;-48
2021/03/20 00:26:42;;;;;;;12.43;3.88;;;;;;;-3.54;91.33;101942.19;4996702;28;20084;-48
2021/03/20 00:29:08;;;;;;;4.65;2.25;;;;;;;-3.30;90.84;101949.66;4993936;28;20038;-49
2021/03/20 00:31:36;;;;;;;7.75;2.75;;;;;;;-3.31;89.57;101944.50;4991671;28;20042;-51
2021/03/20 00:34:03;;;;;;;8.13;2.30;;;;;;;-3.21;90.15;101942.19;4994714;28;20058;-51
2021/03/20 00:36:30;;;;;;;6.88;2.50;;;;;;;-3.30;90.00;101943.78;4995715;28;20061;-48
2021/03/20 00:39:05;;;;;;;5.70;2.50;;;;;;;-3.30;90.65;101936.25;4994583;28;20060;-49
2021/03/20 00:41:32;;;;;;;7.53;2.58;;;;;;;-3.48;90.40;101935.28;4996228;28;20054;-49
2021/03/20 00:43:59;;;;;;;9.07;2.67;;;;;;;-3.45;90.67;101946.50;4995066;28;20053;-48
2021/03/20 00:46:25;;;;;;;8.20;2.53;;;;;;;-3.41;90.05;101945.19;4995523;28;20410;-50
2021/03/20 00:48:52;;;;;;;6.63;2.38;;;;;;;-3.58;91.01;101946.88;4995809;28;20053;-51
2021/03/20 00:51:19;;;;;;;10.27;2.70;;;;;;;-3.73;90.97;101950.31;4994800;28;20435;-45
2021/03/20 00:53:45;;;;;;;8.40;2.90;;;;;;;-3.65;91.09;101951.06;4996476;28;20053;-50
2021/03/20 00:56:12;;;;;;;6.78;2.90;;;;;;;-3.75;90.97;101945.88;4992953;28;20049;-51
2021/03/20 00:58:42;;;;;;;9.82;2.88;;;;;;;-3.85;92.49;101944.91;4996556;28;20053;-51
2021/03/20 01:01:12;;;;;;;5.38;2.35;;;;;;;-3.60;91.74;101945.84;4993610;28;20537;-51
2021/03/20 01:03:39;;;;;;;5.60;2.30;;;;;;;-3.74;90.68;101953.56;4991838;28;20623;-51
2021/03/20 01:06:08;;;;;;;5.10;2.33;;;;;;;-3.73;91.09;101951.94;4995604;28;20567;-51
2021/03/20 01:08:35;;;;;;;6.45;2.40;;;;;;;-3.58;91.54;101941.84;5000112;28;20042;-48
2021/03/20 01:11:03;;;;;;;5.70;2.35;;;;;;;-3.45;90.59;101933.09;4998392;28;20049;-53
2021/03/20 01:13:30;;;;;;;5.68;2.10;;;;;;;-3.48;89.75;101940.28;4999715;28;20290;-50
2021/03/20 01:15:57;;;;;;;10.65;2.33;;;;;;;-3.42;89.23;101945.91;4999269;28;20120;-48
2021/03/20 01:18:24;;;;;;;5.63;1.60;;;;;;;-3.43;89.39;101946.66;4999082;28;20049;-47
2021/03/20 01:20:51;;;;;;;7.28;2.45;;;;;;;-3.35;88.48;101950.81;4999410;28;20416;-47
2021/03/20 01:23:18;;;;;;;6.05;2.08;;;;;;;-3.19;88.42;101943.22;4997643;28;20066;-50
2021/03/20 01:25:44;;;;;;;6.43;1.95;;;;;;;-3.29;88.36;101943.03;4999639;28;20091;-47
2021/03/20 01:28:11;;;;;;;4.28;1.85;;;;;;;-3.10;88.36;101940.03;4996613;28;20132;-49
2021/03/20 01:30:41;;;;;;;2.65;1.55;;;;;;;-3.16;88.08;101941.91;4999712;28;20053;-47
2021/03/20 01:33:08;;;;;;;4.28;1.80;;;;;;;-3.01;87.26;101947.56;4997090;28;20053;-47
2021/03/20 01:35:40;;;;;;;7.75;1.80;;;;;;;-2.88;87.46;101939.66;4994873;28;20045;-51
2021/03/20 01:38:07;;;;;;;3.55;1.55;;;;;;;-3.04;87.42;101938.88;4997202;28;20057;-49
2021/03/20 01:40:44;;;;;;;4.70;1.55;;;;;;;-2.61;86.04;101938.97;4999651;28;20069;-49
2021/03/20 01:43:16;;;;;;;4.30;1.85;;;;;;;-3.08;86.16;101938.56;4996617;28;20250;-47
2021/03/20 01:45:43;;;;;;;4.90;1.67;;;;;;;-2.83;86.00;101930.97;4999825;28;20503;-50
2021/03/20 01:48:24;;;;;;;7.65;1.80;;;;;;;-2.99;86.44;101927.69;4996832;28;20575;-49
2021/03/20 01:50:50;;;;;;;7.03;1.70;;;;;;;-2.96;86.09;101930.47;4995899;28;20183;-50
2021/03/20 01:53:39;;;;;;;3.97;1.40;;;;;;;-3.08;86.96;101921.03;4997130;28;20058;-51
2021/03/20 01:56:09;;;;;;;2.83;1.30;;;;;;;-2.99;87.11;101932.69;4996498;28;20143;-48
2021/03/20 01:58:39;;;;;;;5.97;1.52;;;;;;;-2.96;86.65;101933.88;4994199;28;20049;-52
2021/03/20 02:01:13;;;;;;;6.13;2.28;;;;;;;-2.93;86.69;101929.16;4996514;28;20057;-52
2021/03/20 02:03:40;;;;;;;5.10;1.60;;;;;;;-2.78;86.96;101926.41;4994804;28;20159;-49
2021/03/20 02:06:08;;;;;;;5.70;1.42;;;;;;;-2.69;84.79;101927.31;4996166;28;20473;-48
2021/03/20 02:08:40;;;;;;;4.30;1.95;;;;;;;-2.92;85.90;101940.97;4998952;28;20045;-49
2021/03/20 02:11:13;;;;;;;4.60;1.50;;;;;;;-2.53;86.21;101929.72;4996034;28;20259;-46
2021/03/20 02:13:44;;;;;;;5.85;1.50;;;;;;;-2.83;85.58;101926.84;4994184;28;20084;-48
2021/03/20 02:16:17;;;;;;;5.82;1.98;;;;;;;-2.66;84.90;101931.00;4995580;28;20440;-52
2021/03/20 02:18:49;;;;;;;2.45;1.13;;;;;;;-2.50;84.58;101923.34;4998762;28;20046;-48
2021/03/20 02:21:22;;;;;;;3.95;1.40;;;;;;;-2.78;85.66;101923.91;4996345;28;20047;-48
2021/03/20 02:24:29;;;;;;;5.72;1.60;;;;;;;-2.77;85.25;101920.66;4998745;28;20483;-50
2021/03/20 02:27:23;;;;;;;7.53;1.30;;;;;;;-2.65;85.16;101929.38;4995007;28;20074;-50
2021/03/20 02:30:13;;;;;;;5.82;1.42;;;;;;;-2.60;84.52;101923.19;4995273;28;20064;-47
2021/03/20 02:33:08;;;;;;;3.30;1.33;;;;;;;-2.84;84.14;101927.56;4940072;28;20484;-48
2021/03/20 02:36:01;;;;;;;3.45;1.45;;;;;;;-2.69;84.80;101928.19;4998163;28;20261;-53
2021/03/20 02:38:51;;;;;;;3.70;1.52;;;;;;;-2.66;84.62;101927.63;4982067;28;20538;-51
2021/03/20 02:41:21;;;;;;;3.05;1.30;;;;;;;-2.44;83.45;101931.50;4995827;28;20046;-47
2021/03/20 02:44:11;;;;;;;4.03;1.70;;;;;;;-2.77;83.82;101925.66;4998512;28;20460;-51
2021/03/20 02:47:00;;;;;;;1.23;1.08;;;;;;;-2.93;84.91;101926.66;4992938;28;20052;-49
2021/03/20 02:49:46;;;;;;;3.50;1.35;;;;;;;-2.74;84.64;101919.34;4997052;28;20463;-51
2021/03/20 02:53:05;;;;;;;5.05;1.70;;;;;;;-2.75;85.27;101920.09;4993126;28;20068;-51
2021/03/20 02:55:54;;;;;;;2.05;1.30;;;;;;;-2.51;84.24;101930.72;4967533;28;20443;-52
2021/03/20 02:58:26;;;;;;;6.07;1.30;;;;;;;-2.77;83.81;101924.06;4995966;28;20046;-51
2021/03/20 03:01:03;;;;;;;5.63;1.30;;;;;;;-2.32;83.29;101925.13;4997209;28;20042;-50
2021/03/20 03:03:37;;;;;;;3.78;1.40;;;;;;;-2.42;82.83;101929.13;4996983;28;20052;-53
2021/03/20 03:06:25;;;;;;;3.75;1.40;;;;;;;-2.80;83.46;101918.75;4995689;28;20049;-53
2021/03/20 03:09:12;;;;;;;4.85;1.58;;;;;;;-2.41;82.67;101919.22;4994569;28;20061;-50
2021/03/20 03:12:04;;;;;;;4.30;1.38;;;;;;;-2.75;83.74;101925.09;4993389;28;20061;-49
2021/03/20 03:14:45;;;;;;;6.72;1.90;;;;;;;-2.73;84.79;101918.59;4997668;28;20046;-49
2021/03/20 03:17:15;;;;;;;3.97;1.50;;;;;;;-2.69;84.61;101918.16;4994098;28;20042;-54
2021/03/20 03:20:09;;;;;;;3.22;1.60;;;;;;;-2.79;84.36;101917.13;4996906;28;20123;-51
2021/03/20 03:22:43;;;;;;;4.35;1.33;;;;;;;-2.83;84.38;101911.78;4981548;28;20077;-51
2021/03/20 03:25:13;;;;;;;3.92;1.42;;;;;;;-2.79;84.11;101915.50;4994800;28;20451;-49
2021/03/20 03:27:45;;;;;;;3.88;1.75;;;;;;;-2.81;84.81;101916.97;4992948;28;20504;-51
2021/03/20 03:30:15;;;;;;;4.40;1.67;;;;;;;-2.85;84.71;101925.81;4993551;28;20050;-47
2021/03/20 03:32:46;;;;;;;4.85;1.77;;;;;;;-2.86;85.10;101928.19;4997429;28;20050;-51
2021/03/20 03:35:22;;;;;;;2.28;1.80;;;;;;;-2.91;85.19;101927.72;4994510;28;20133;-49
2021/03/20 03:37:49;;;;;;;6.47;1.98;;;;;;;-2.86;85.07;101938.19;4997261;28;20053;-47
2021/03/20 03:40:30;;;;;;;6.10;1.73;;;;;;;-2.75;84.32;101934.25;4994962;28;20053;-50
2021/03/20 03:42:56;;;;;;;4.95;1.58;;;;;;;-2.75;85.08;101939.25;4996168;28;20076;-52
2021/03/20 03:45:23;;;;;;;5.50;1.80;;;;;;;-2.84;84.77;101946.75;4995313;28;20054;-51
2021/03/20 03:47:50;;;;;;;3.15;1.23;;;;;;;-2.78;84.95;101943.94;4996820;28;20050;-47
2021/03/20 03:50:33;;;;;;;4.03;1.60;;;;;;;-2.75;85.42;101945.16;4994713;28;20038;-50
2021/03/20 03:53:03;;;;;;;3.13;1.60;;;;;;;-2.79;86.12;101947.19;4993439;28;20052;-49
2021/03/20 03:55:30;;;;;;;5.22;2.10;;;;;;;-2.76;85.65;101947.50;4996263;28;20073;-51
2021/03/20 03:58:05;;;;;;;4.05;1.80;;;;;;;-2.70;85.55;101941.47;4995883;28;20058;-51
2021/03/20 04:00:55;;;;;;;4.03;1.70;;;;;;;-2.69;85.07;101940.72;4996603;28;20061;-51
2021/03/20 04:03:38;;;;;;;6.70;1.83;;;;;;;-2.79;86.21;101943.06;4995349;28;20416;-51
2021/03/20 04:06:16;;;;;;;3.17;1.92;;;;;;;-2.78;86.00;101938.94;4994547;28;20045;-47
2021/03/20 04:08:52;;;;;;;3.53;1.80;;;;;;;-2.77;86.33;101941.63;4993299;28;20050;-54
2021/03/20 04:11:25;;;;;;;4.18;1.52;;;;;;;-2.81;86.39;101934.53;4995049;28;20050;-47
2021/03/20 04:14:01;;;;;;;6.85;1.80;;;;;;;-2.77;86.15;101940.72;4996186;28;20129;-49
2021/03/20 04:16:42;;;;;;;3.35;1.40;;;;;;;-2.86;86.17;101941.59;4996177;28;20038;-49
2021/03/20 04:19:20;;;;;;;2.92;1.65;;;;;;;-2.84;86.68;101942.63;4993847;28;20046;-50
2021/03/20 04:21:53;;;;;;;4.30;1.65;;;;;;;-2.76;86.04;101938.38;4993878;28;20058;-51
2021/03/20 04:24:30;;;;;;;5.15;1.83;;;;;;;-2.76;85.56;101940.88;4994868;28;20061;-52
2021/03/20 04:27:14;;;;;;;6.20;1.90;;;;;;;-2.92;85.45;101945.09;4995551;28;20060;-47
2021/03/20 04:30:21;;;;;;;3.20;1.58;;;;;;;-2.90;85.80;101939.50;4992396;28;20050;-50
2021/03/20 04:33:09;;;;;;;8.18;2.58;;;;;;;-2.54;85.43;101945.47;4993958;28;20053;-48
2021/03/20 04:35:44;;;;;;;6.22;2.15;;;;;;;-2.11;82.55;101933.84;4992236;28;20129;-48
2021/03/20 04:38:12;;;;;;;6.38;2.50;;;;;;;-2.18;82.54;101935.63;4994364;28;20569;-48
2021/03/20 04:41:02;;;;;;;6.22;2.15;;;;;;;-2.28;83.27;101936.34;5000906;28;20053;-51
2021/03/20 04:43:32;;;;;;;4.63;1.77;;;;;;;-2.58;84.19;101932.66;5003369;28;20046;-47
2021/03/20 04:46:02;;;;;;;6.05;1.83;;;;;;;-2.73;85.25;101932.75;5002855;28;20041;-48
2021/03/20 04:48:37;;;;;;;2.97;1.75;;;;;;;-2.76;85.79;101940.88;5003466;28;20085;-48
2021/03/20 04:51:21;;;;;;;2.72;1.45;;;;;;;-2.74;86.22;101941.91;5001883;28;20056;-47
2021/03/20 04:53:50;;;;;;;5.25;2.47;;;;;;;-2.91;85.43;101941.84;5000660;28;20123;-54
2021/03/20 04:56:20;;;;;;;4.05;1.73;;;;;;;-2.96;86.76;101943.91;5001557;28;20050;-48
2021/03/20 04:58:57;;;;;;;5.35;1.63;;;;;;;-2.86;86.73;101930.69;5003859;28;20050;-48
2021/03/20 05:01:33;;;;;;;4.65;1.83;;;;;;;-2.75;86.49;101944.25;5002417;28;20050;-48
2021/03/20 05:04:04;;;;;;;4.10;1.75;;;;;;;-2.73;85.39;101942.78;5001804;28;20421;-52
2021/03/20 05:06:33;;;;;;;6.38;1.88;;;;;;;-2.73;86.71;101942.78;5002891;28;20049;-47
2021/03/20 05:09:06;;;;;;;4.20;1.70;;;;;;;-2.79;86.67;101947.19;5001859;28;20262;-47
2021/03/20 05:11:39;;;;;;;3.75;1.85;;;;;;;-2.73;87.00;101950.31;5003394;28;20068;-49
2021/03/20 05:14:14;;;;;;;5.50;1.50;;;;;;;-2.70;86.88;101954.00;5001404;28;20054;-49
2021/03/20 05:16:47;;;;;;;2.85;1.30;;;;;;;-2.72;86.76;101947.97;4999605;28;20060;-52
2021/03/20 05:19:14;;;;;;;5.03;1.85;;;;;;;-2.73;86.24;101960.34;5000832;28;20081;-50
2021/03/20 05:21:43;;;;;;;3.90;1.77;;;;;;;-2.42;86.73;101944.16;5003789;28;20084;-49
2021/03/20 05:24:22;;;;;;;3.70;1.45;;;;;;;-1.78;82.78;101946.97;5000718;28;20096;-48
2021/03/20 05:26:48;;;;;;;5.55;1.77;;;;;;;-2.07;83.08;101947.59;5000390;28;20057;-48
2021/03/20 05:29:15;;;;;;;5.43;1.27;;;;;;;-2.32;84.69;101954.34;5002134;28;20061;-51
2021/03/20 05:31:42;;;;;;;2.35;1.52;;;;;;;-2.12;84.31;101951.28;5003703;28;20056;-50
2021/03/20 05:34:24;;;;;;;3.95;1.90;;;;;;;-2.01;83.32;101954.81;5000738;28;20049;-49
2021/03/20 05:36:52;;;;;;;5.05;1.95;;;;;;;-1.82;81.71;101958.34;5000404;28;20046;-52
2021/03/20 05:39:20;;;;;;;3.40;1.40;;;;;;;-2.02;83.24;101970.63;5001469;28;20058;-50
2021/03/20 05:42:18;;;;;;;4.45;1.80;;;;;;;-1.89;82.60;101971.94;5004953;28;20388;-51
2021/03/20 05:45:08;;;;;;;3.65;1.75;;;;;;;-2.12;84.22;101968.84;4999262;28;20046;-51
2021/03/20 05:48:05;;;;;;;4.50;1.73;;;;;;;-1.94;83.53;101968.13;5003760;28;20045;-53
2021/03/20 05:50:47;;;;;;;5.55;1.65;;;;;;;-1.62;82.32;101967.75;5003082;28;20384;-54
2021/03/20 05:53:33;;;;;;;5.72;2.03;;;;;;;-1.24;81.00;101968.88;4996880;28;20054;-54
2021/03/20 05:56:08;;;;;;;3.43;2.10;;;;;;;-1.22;79.53;101969.88;4998870;28;20057;-51
2021/03/20 05:59:01;;;;;;;4.95;1.90;;;;;;;-1.27;79.39;101958.53;5000631;28;20046;-53
2021/03/20 06:01:42;;;;;;;6.50;2.10;;;;;;;-1.41;80.94;101957.22;4999626;28;20046;-49
2021/03/20 06:04:30;;;;;;;8.82;2.50;;;;;;;-1.45;81.14;101960.19;4997504;28;20096;-52
2021/03/20 06:07:28;;;;;;;5.93;2.55;;;;;;;-1.67;81.57;101971.47;4994499;28;20050;-50
2021/03/20 06:09:57;;;;;;;5.18;2.13;;;;;;;-1.47;81.52;101971.75;4996896;28;20060;-52
2021/03/20 06:12:50;;;;;;;3.40;1.70;;;;;;;-1.41;81.89;101972.31;4998314;28;20050;-51
2021/03/20 06:15:49;;;;;;;4.43;1.77;;;;;;;-1.48;81.86;101977.47;4997275;28;20035;-48
2021/03/20 06:18:40;;;;;;;2.17;1.63;;;;;;;-1.13;81.07;101985.81;4997521;28;20600;-53
2021/03/20 06:21:33;;;;;;;4.32;2.13;;;;;;;-1.21;81.48;101988.34;4997181;28;20133;-54
2021/03/20 06:24:18;;;;;;;3.40;2.00;;;;;;;-0.91;80.49;101988.69;4996971;28;20420;-49
2021/03/20 06:26:46;;;;;;;6.47;1.90;;;;;;;-0.90;80.06;101982.03;4995864;28;20034;-50
2021/03/20 06:29:28;;;;;;;5.22;2.00;;;;;;;-0.71;78.55;101998.06;4996509;28;20042;-49
2021/03/20 06:32:19;;;;;;;3.35;1.95;;;;;;;-0.64;79.44;101994.50;4998973;28;20557;-52
2021/03/20 06:34:54;;;;;;;5.45;2.40;;;;;;;-0.11;76.78;101998.44;4996356;28;20041;-53
2021/03/20 06:37:27;;;;;;;8.13;2.20;;;;;;;-0.37;75.67;102004.56;4997779;28;20046;-49
2021/03/20 06:40:02;;;;;;;4.15;2.42;;;;;;;-0.38;76.70;101989.28;4999021;28;20052;-49
2021/03/20 06:42:36;;;;;;;5.40;1.70;;;;;;;0.40;73.37;101988.66;4999131;28;20062;-51
2021/03/20 06:45:21;;;;;;;5.38;2.13;;;;;;;1.04;71.04;101991.69;4997244;28;20050;-51
2021/03/20 06:47:57;;;;;;;4.22;1.80;;;;;;;0.60;72.17;101983.75;4995772;28;20163;-51
2021/03/20 06:50:28;;;;;;;;;;;;;;;0.32;72.21;101979.56;4998241;28;20046;-49
2021/03/20 06:53:02;;;;;;;5.10;1.92;;;;;;;0.47;71.59;101980.91;4998416;28;19954;-48
2021/03/20 06:55:34;;;;;;;5.47;2.10;;;;;;;0.20;73.27;101980.25;4996660;28;20045;-45
2021/03/20 06:58:25;;;;;;;5.65;1.88;;;;;;;0.52;72.16;101983.81;5005043;28;20543;-45
2021/03/20 07:00:52;;;;;;;3.28;1.58;;;;;;;1.04;69.59;101978.19;4992700;28;20053;-47
2021/03/20 07:03:30;;;;;;;5.88;2.22;;;;;;;0.73;70.65;101975.56;4999490;28;20050;-47
2021/03/20 07:06:34;;;;;;;5.78;2.20;;;;;;;1.34;67.49;101973.19;4999184;28;20523;-45
2021/03/20 07:09:05;;;;;;;9.48;2.83;;;;;;;0.94;66.67;101972.38;4998037;28;20053;-46
2021/03/20 07:11:36;;;;;;;3.42;1.90;;;;;;;1.44;66.68;101965.63;4992543;28;20045;-50
2021/03/20 07:14:37;;;;;;;3.33;1.80;;;;;;;1.51;67.64;101965.34;4987094;28;20505;-49
2021/03/20 07:17:07;;;;;;;5.22;1.75;;;;;;;1.18;67.20;101965.09;4999482;28;20053;-48
2021/03/20 07:19:50;;;;;;;4.25;1.80;;;;;;;1.22;67.49;101962.94;4995649;28;20108;-47
2021/03/20 07:22:27;;;;;;;3.95;2.10;;;;;;;1.37;65.05;101965.84;4993370;28;20137;-51
2021/03/20 07:24:55;;;;;;;4.45;1.63;;;;;;;1.31;66.01;101967.88;4995633;28;20385;-52
2021/03/20 07:27:31;;;;;;;4.82;1.98;;;;;;;1.55;64.49;101968.16;4997360;28;20054;-47
2021/03/20 07:30:06;;;;;;;5.70;2.03;;;;;;;1.17;65.96;101959.16;4995625;28;20046;-48
2021/03/20 07:32:40;;;;;;;2.63;1.60;;;;;;;1.38;65.95;101975.19;4996825;28;20038;-48
2021/03/20 07:35:19;;;;;;;7.78;2.22;;;;;;;1.63;63.94;101975.59;4995057;28;20053;-49
2021/03/20 07:37:48;;;;;;;4.50;1.88;;;;;;;1.70;64.46;101975.31;4995325;28;20046;-47
2021/03/20 07:40:23;;;;;;;4.72;1.77;;;;;;;1.22;66.03;101979.75;4995161;28;20057;-45
2021/03/20 07:43:08;;;;;;;4.63;1.77;;;;;;;1.49;64.78;101976.09;4996347;28;20053;-48
2021/03/20 07:45:35;;;;;;;2.53;1.73;;;;;;;1.43;64.29;101975.56;4996298;28;20040;-48
2021/03/20 07:48:05;;;;;;;3.33;1.67;;;;;;;1.71;63.55;101982.16;4994574;28;20050;-46
2021/03/20 07:50:38;;;;;;;4.22;1.90;;;;;;;1.26;65.71;101991.84;4995028;28;20046;-50
2021/03/20 07:53:17;;;;;;;3.72;1.50;;;;;;;1.35;63.64;101991.75;4988729;28;20052;-48
2021/03/20 07:55:59;;;;;;;3.42;1.40;;;;;;;1.95;62.47;101982.38;4988647;28;20046;-46
2021/03/20 07:58:50;;;;;;;2.70;1.88;;;;;;;2.15;62.16;101989.91;4992156;28;20042;-47
2021/03/20 08:01:19;;;;;;;6.50;1.90;;;;;;;1.90;63.32;102001.34;4996713;28;20046;-45
2021/03/20 08:04:02;;;;;;;2.92;1.70;;;;;;;2.11;61.65;102000.53;4991559;28;20049;-48
2021/03/20 08:06:32;;;;;;;2.00;1.70;;;;;;;1.93;62.61;102004.97;4997480;28;20041;-47
2021/03/20 08:09:22;;;;;;;6.72;1.70;;;;;;;2.41;60.47;102008.81;4997003;28;20416;-48
2021/03/20 08:11:58;;;;;;;4.07;2.05;;;;;;;2.84;60.70;102008.00;4994075;28;20049;-46
2021/03/20 08:14:25;;;;;;;4.60;2.13;;;;;;;2.89;59.08;102006.72;4996141;28;20130;-45
2021/03/20 08:16:51;;;;;;;2.58;1.60;;;;;;;2.79;59.38;102006.78;4995674;28;20053;-50
2021/03/20 08:19:19;;;;;;;6.20;1.90;;;;;;;3.52;55.16;102009.00;4996049;28;20692;-47
2021/03/20 08:22:24;;;;;;;6.05;2.08;;;;;;;3.35;56.47;102009.38;4998810;28;20042;-47
2021/03/20 08:25:24;;;;;;;6.18;1.70;;;;;;;3.15;56.36;102003.69;4992846;28;20713;-46
2021/03/20 08:28:28;;;;;;;3.63;1.52;;;;;;;3.69;54.00;102007.69;4988325;28;20057;-48
2021/03/20 08:31:05;;;;;;;3.72;1.33;;;;;;;3.86;54.57;102007.31;4992820;28;20057;-48
2021/03/20 08:34:06;;;;;;;3.45;1.40;;;;;;;4.01;51.77;102005.00;4995506;28;20493;-49
2021/03/20 08:36:52;;;;;;;2.75;0.95;;;;;;;3.51;52.29;102013.19;4999346;28;20040;-48
2021/03/20 08:39:47;;;;;;;3.10;1.02;;;;;;;3.51;51.75;102009.75;4994966;28;20054;-51
2021/03/20 08:42:34;;;;;;;1.92;1.10;;;;;;;3.67;51.89;102012.66;4993659;28;20046;-50
2021/03/20 08:45:28;;;;;;;4.35;1.58;;;;;;;2.90;52.90;102003.41;4994028;28;20048;-51
2021/03/20 08:48:17;;;;;;;4.13;1.27;;;;;;;3.46;54.93;102008.50;4994884;28;20057;-47
2021/03/20 08:51:03;;;;;;;4.13;1.52;;;;;;;4.02;53.41;102021.97;4991884;28;20381;-49
2021/03/20 08:54:00;;;;;;;4.53;1.40;;;;;;;3.52;53.00;102009.88;4995407;28;20057;-50
2021/03/20 08:56:59;;;;;;;1.92;1.73;;;;;;;4.12;50.06;102008.34;4994510;28;20043;-51
2021/03/20 08:59:39;;;;;;;3.15;1.30;;;;;;;4.61;50.97;102022.88;4994448;28;20046;-48
2021/03/20 09:02:24;;;;;;;4.85;1.20;;;;;;;4.96;47.99;102011.78;4994947;28;20050;-47
2021/03/20 09:05:07;;;;;;;2.17;0.80;;;;;;;3.81;49.12;102014.56;4993915;28;20123;-50
2021/03/20 09:07:49;;;;;;;5.32;1.20;;;;;;;4.97;46.56;102013.56;4996876;28;20046;-46
2021/03/20 09:10:25;;;;;;;5.03;1.60;;;;;;;4.64;48.12;102007.00;4994034;28;20050;-48
2021/03/20 09:13:00;;;;;;;;;;;;;;;4.66;47.62;102007.97;4996876;28;20496;-46
2021/03/20 09:15:48;;;;;;;4.95;1.33;;;;;;;5.40;44.48;102012.28;4992608;28;19921;-48
2021/03/20 09:18:17;;;;;;;2.60;1.13;;;;;;;5.48;45.50;102013.69;4994445;28;20050;-49
2021/03/20 09:20:51;;;;;;;2.17;1.08;;;;;;;5.77;48.08;102009.66;4997203;28;20572;-46
2021/03/20 09:23:29;;;;;;;2.03;1.00;;;;;;;5.78;45.37;102014.88;4994529;28;20050;-49
2021/03/20 09:26:00;;;;;;;3.03;1.15;;;;;;;5.53;42.91;102014.88;4995780;28;20050;-46
2021/03/20 09:28:52;;;;;;;3.83;1.20;;;;;;;4.41;46.25;102016.41;4999105;28;20054;-51
2021/03/20 09:31:28;;;;;;;2.55;1.05;;;;;;;5.15;44.29;102013.94;4997286;28;20314;-53
2021/03/20 09:34:17;;;;;;;3.40;1.20;;;;;;;5.75;44.10;102026.50;5001818;28;20054;-49
2021/03/20 09:36:48;;;;;;;1.10;0.97;;;;;;;5.07;44.99;102026.09;4997315;28;20046;-45
2021/03/20 09:39:50;;;;;;;2.53;1.08;;;;;;;5.96;43.37;102022.88;4997945;28;20284;-51
2021/03/20 09:42:28;;;;;;;3.58;1.13;;;;;;;6.41;42.56;102028.28;4959171;28;20435;-48
2021/03/20 09:45:05;;;;;;;5.05;0.90;;;;;;;6.48;41.77;102010.09;4999680;28;20057;-49
2021/03/20 09:47:31;;;;;;;3.58;1.27;;;;;;;6.50;42.19;102006.84;4999535;28;20049;-48
2021/03/20 09:50:07;;;;;;;6.15;1.40;;;;;;;6.37;42.08;102012.78;4999282;28;20054;-48
2021/03/20 09:52:57;;;;;;;2.65;1.30;;;;;;;5.96;42.02;102016.88;4999881;28;20045;-46
2021/03/20 09:55:29;;;;;;;4.00;1.58;;;;;;;5.06;42.02;102004.91;4998552;28;20051;-50
2021/03/20 09:57:58;;;;;;;3.97;1.55;;;;;;;5.27;43.34;102005.53;4999018;28;20049;-47
2021/03/20 10:00:46;;;;;;;1.80;1.40;;;;;;;6.01;42.05;102001.16;4998699;28;20119;-45
2021/03/20 10:03:46;;;;;;;3.63;1.42;;;;;;;5.42;41.03;102002.25;4997065;28;20042;-47
2021/03/20 10:06:19;;;;;;;2.13;1.30;;;;;;;6.06;41.92;101993.84;4996603;28;20046;-50
2021/03/20 10:09:13;;;;;;;3.53;2.40;;;;;;;6.19;41.67;101995.47;5000388;28;20041;-47
2021/03/20 10:12:01;;;;;;;5.13;2.50;;;;;;;6.25;41.56;102001.88;4995782;28;20050;-51
2021/03/20 10:14:34;;;;;;;4.38;1.60;;;;;;;5.11;42.52;101995.94;4999285;28;20047;-50
2021/03/20 10:17:16;;;;;;;4.25;2.58;;;;;;;5.96;41.75;101997.44;4998037;28;20053;-51
2021/03/20 10:19:50;;;;;;;6.03;2.60;;;;;;;5.43;43.40;101994.72;4996005;28;20038;-48
2021/03/20 10:22:32;;;;;;;5.72;2.65;;;;;;;6.09;42.15;101996.56;4997207;28;20046;-48
2021/03/20 10:25:00;;;;;;;6.80;2.85;;;;;;;6.17;41.22;101994.50;4998283;28;20121;-51
2021/03/20 10:27:33;;;;;;;3.53;2.15;;;;;;;5.96;42.46;101997.44;4998384;28;20042;-48
2021/03/20 10:30:15;;;;;;;4.70;1.90;;;;;;;5.60;42.19;101996.75;4998023;28;20050;-49
2021/03/20 10:32:56;;;;;;;2.55;1.80;;;;;;;6.16;40.93;101988.56;4994870;28;20048;-49
2021/03/20 10:35:28;;;;;;;5.43;2.20;;;;;;;6.08;42.32;101993.13;4998055;28;20042;-48
2021/03/20 10:37:55;;;;;;;3.30;1.73;;;;;;;6.03;40.87;101993.63;4997108;28;20049;-49
2021/03/20 10:40:25;;;;;;;4.25;1.70;;;;;;;6.26;41.05;101987.47;4997373;28;20761;-48
2021/03/20 10:42:57;;;;;;;4.75;1.40;;;;;;;5.63;41.98;101981.69;4998982;28;20057;-46
2021/03/20 10:45:38;;;;;;;4.80;1.60;;;;;;;5.73;42.59;101977.19;4997643;28;20058;-46
2021/03/20 10:48:15;;;;;;;2.17;1.30;;;;;;;5.57;43.41;101960.94;4995231;28;20056;-50
2021/03/20 10:50:48;;;;;;;3.92;1.25;;;;;;;5.55;44.13;101972.69;4995310;28;20586;-48
2021/03/20 10:53:23;;;;;;;2.65;1.75;;;;;;;6.02;42.44;101969.88;4996446;28;20050;-50
2021/03/20 10:55:53;;;;;;;1.95;1.42;;;;;;;5.56;40.21;101965.94;4998720;28;20046;-45
2021/03/20 10:58:26;;;;;;;3.13;1.42;;;;;;;5.99;41.63;101971.31;4996896;28;20058;-45
2021/03/20 11:00:53;;;;;;;2.33;1.27;;;;;;;6.12;40.12;101974.75;4998077;28;20130;-50
2021/03/20 11:03:43;;;;;;;1.75;1.33;;;;;;;6.67;38.78;101971.38;4996748;28;20520;-48
2021/03/20 11:06:17;;;;;;;3.90;1.15;;;;;;;6.87;39.99;101965.84;4995494;28;20034;-53
2021/03/20 11:08:47;;;;;;;2.47;1.30;;;;;;;6.40;39.60;101961.25;4994944;28;20447;-46
2021/03/20 11:11:26;;;;;;;1.67;1.10;;;;;;;5.68;39.58;101961.66;4977446;28;20050;-45
2021/03/20 11:14:01;;;;;;;1.48;1.15;;;;;;;5.99;40.82;101949.31;4998066;28;20049;-49
2021/03/20 11:16:29;;;;;;;2.67;1.35;;;;;;;6.53;38.40;101945.97;4997333;28;20046;-45
2021/03/20 11:19:23;;;;;;;3.38;1.15;;;;;;;6.26;39.80;101929.84;4997453;28;20077;-50
2021/03/20 11:21:54;;;;;;;3.00;1.25;;;;;;;7.26;37.75;101935.94;4981324;28;20045;-53
2021/03/20 11:24:37;;;;;;;4.68;1.73;;;;;;;8.08;35.31;101927.91;4996627;28;20053;-48
2021/03/20 11:27:24;;;;;;;2.55;1.27;;;;;;;9.02;33.65;101930.44;4995679;28;20076;-48
2021/03/20 11:29:58;;;;;;;2.40;1.00;;;;;;;9.38;32.80;101923.72;4994952;28;20049;-46
2021/03/20 11:32:33;;;;;;;3.33;1.45;;;;;;;11.38;31.17;101917.69;4994753;28;20042;-51
2021/03/20 11:35:05;;;;;;;3.20;1.33;;;;;;;9.95;33.42;101923.16;4995265;28;20792;-49
2021/03/20 11:37:32;;;;;;;6.03;1.20;;;;;;;9.74;30.44;101929.78;4996544;28;20041;-50
2021/03/20 11:40:02;;;;;;;2.67;1.38;;;;;;;10.42;29.91;101921.13;4996122;28;20057;-48
2021/03/20 11:42:37;;;;;;;4.20;1.17;;;;;;;10.92;31.25;101925.09;4997158;28;20082;-50
2021/03/20 11:45:23;;;;;;;1.85;0.80;;;;;;;10.59;30.74;101930.44;4995432;28;20057;-50
2021/03/20 11:47:52;;;;;;;3.97;1.20;;;;;;;10.26;29.11;101926.31;4994235;28;20045;-50
2021/03/20 11:50:34;;;;;;;1.58;1.40;;;;;;;10.92;28.50;101925.97;4994858;28;20050;-48
2021/03/20 11:53:05;;;;;;;2.22;1.10;;;;;;;10.48;29.37;101900.91;4996244;28;20041;-48
2021/03/20 11:55:40;;;;;;;3.08;1.50;;;;;;;11.52;27.29;101908.00;4997556;28;20267;-53
2021/03/20 11:58:25;;;;;;;2.35;1.17;;;;;;;10.34;30.31;101902.81;4995644;28;20057;-46
2021/03/20 12:00:52;;;;;;;3.22;1.25;;;;;;;10.75;28.46;101903.81;4994671;28;20061;-49
2021/03/20 12:03:21;;;;;;;2.45;1.30;;;;;;;9.89;30.81;101887.06;4994544;28;20081;-48
2021/03/20 12:06:12;;;;;;;2.13;1.25;;;;;;;9.55;30.90;101894.78;4997896;28;22148;-48
2021/03/20 12:08:42;;;;;;;2.88;1.27;;;;;;;8.31;32.05;101882.34;4993161;28;20050;-49
2021/03/20 12:11:12;;;;;;;3.38;1.35;;;;;;;7.77;33.30;101881.09;4995095;28;20102;-49
2021/03/20 12:13:40;;;;;;;1.67;1.23;;;;;;;8.51;31.66;101870.72;4993321;28;20054;-53
2021/03/20 12:16:06;;;;;;;3.17;1.20;;;;;;;8.66;31.38;101872.38;4995195;28;20057;-50